createdAt,value
2023-05-09T00:00:42.721Z,9.40
2023-05-09T00:03:21.071Z,9.30
2023-05-09T00:04:43.254Z,9.40
2023-05-09T00:06:06.773Z,9.30
2023-05-09T00:07:28.998Z,9.30
2023-05-09T00:08:51.003Z,9.40
2023-05-09T00:10:13.208Z,9.40
2023-05-09T00:11:35.245Z,9.40
2023-05-09T00:12:58.799Z,9.30
2023-05-09T00:14:20.894Z,9.30
2023-05-09T00:15:44.292Z,9.30
2023-05-09T00:17:07.762Z,9.30
2023-05-09T00:18:30.984Z,9.30
2023-05-09T00:19:53.796Z,9.30
2023-05-09T00:21:16.273Z,9.30
2023-05-09T00:22:40.652Z,9.30
2023-05-09T00:24:02.779Z,9.30
2023-05-09T00:25:24.979Z,9.30
2023-05-09T00:26:47.054Z,9.30
2023-05-09T00:28:09.106Z,9.30
2023-05-09T00:29:31.121Z,9.30
2023-05-09T00:30:53.656Z,9.30
2023-05-09T00:32:15.865Z,9.40
2023-05-09T00:33:37.913Z,9.40
2023-05-09T00:35:00.059Z,9.40
2023-05-09T00:36:22.184Z,9.30
2023-05-09T00:37:44.219Z,9.30
2023-05-09T00:39:06.293Z,9.30
2023-05-09T00:40:28.398Z,9.30
2023-05-09T00:41:51.874Z,9.30
2023-05-09T00:43:13.977Z,9.30
2023-05-09T00:44:36.060Z,9.30
2023-05-09T00:45:58.231Z,9.20
2023-05-09T00:47:23.072Z,9.20
2023-05-09T00:48:46.474Z,9.20
2023-05-09T00:50:09.464Z,9.20
2023-05-09T00:51:32.598Z,9.20
2023-05-09T00:52:54.826Z,9.20
2023-05-09T00:54:16.970Z,9.10
2023-05-09T00:55:40.157Z,9.10
2023-05-09T00:57:02.178Z,9.10
2023-05-09T00:58:24.266Z,9.10
2023-05-09T00:59:46.403Z,9.10
2023-05-09T01:01:08.831Z,9.10
2023-05-09T01:02:32.357Z,9.00
2023-05-09T01:03:55.741Z,9.00
2023-05-09T01:05:18.341Z,9.00
2023-05-09T01:07:17.902Z,9.00
2023-05-09T01:08:46.234Z,9.00
2023-05-09T01:10:33.357Z,9.10
2023-05-09T01:12:03.991Z,9.00
2023-05-09T01:14:07.573Z,9.00
2023-05-09T01:15:39.667Z,9.00
2023-05-09T01:17:19.962Z,9.00
2023-05-09T01:19:10.475Z,9.00
2023-05-09T01:20:39.557Z,9.00
2023-05-09T01:22:07.195Z,9.00
2023-05-09T01:23:41.380Z,9.00
2023-05-09T01:25:09.501Z,9.00
2023-05-09T01:26:56.878Z,8.90
2023-05-09T01:29:01.559Z,8.90
2023-05-09T01:30:25.954Z,8.90
2023-05-09T01:31:49.288Z,8.90
2023-05-09T01:33:16.369Z,8.90
2023-05-09T01:34:40.973Z,8.90
2023-05-09T01:36:06.694Z,8.90
2023-05-09T01:37:39.445Z,8.90
2023-05-09T01:39:04.189Z,8.90
2023-05-09T01:40:30.211Z,8.90
2023-05-09T01:41:55.540Z,8.90
2023-05-09T01:43:19.327Z,8.80
2023-05-09T01:44:44.241Z,8.80
2023-05-09T01:46:08.103Z,8.80
2023-05-09T01:47:30.727Z,8.80
2023-05-09T01:48:54.338Z,8.80
2023-05-09T01:50:19.044Z,8.70
2023-05-09T01:51:43.801Z,8.70
2023-05-09T01:53:06.632Z,8.70
2023-05-09T01:54:29.272Z,8.70
2023-05-09T01:55:52.649Z,8.70
2023-05-09T01:57:15.727Z,8.70
2023-05-09T01:58:39.280Z,8.70
2023-05-09T02:00:02.632Z,8.60
2023-05-09T02:01:26.278Z,8.60
2023-05-09T02:02:49.391Z,8.60
2023-05-09T02:04:13.550Z,8.50
2023-05-09T02:05:37.288Z,8.60
2023-05-09T02:07:00.416Z,8.50
2023-05-09T02:08:23.339Z,8.50
2023-05-09T02:09:46.213Z,8.50
2023-05-09T02:11:08.370Z,8.50
2023-05-09T02:12:30.435Z,8.50
2023-05-09T02:13:52.581Z,8.50
2023-05-09T02:15:15.015Z,8.40
2023-05-09T02:16:39.430Z,8.40
2023-05-09T02:18:01.610Z,8.40
2023-05-09T02:19:23.669Z,8.40
2023-05-09T02:20:46.225Z,8.40
2023-05-09T02:22:08.569Z,8.40
2023-05-09T02:23:31.014Z,8.30
2023-05-09T02:24:53.211Z,8.30
2023-05-09T02:26:15.501Z,8.30
2023-05-09T02:27:39.857Z,8.30
2023-05-09T02:29:05.659Z,8.30
2023-05-09T02:30:34.969Z,8.20
2023-05-09T02:31:59.782Z,8.20
2023-05-09T02:33:23.144Z,8.20
2023-05-09T02:34:46.107Z,8.20
2023-05-09T02:36:10.008Z,8.20
2023-05-09T02:37:33.288Z,8.20
2023-05-09T02:38:55.683Z,8.20
2023-05-09T02:40:19.136Z,8.10
2023-05-09T02:41:47.680Z,8.10
2023-05-09T02:43:10.126Z,8.10
2023-05-09T02:44:32.168Z,8.10
2023-05-09T02:45:54.323Z,8.00
2023-05-09T02:47:16.465Z,8.00
2023-05-09T02:48:38.635Z,8.00
2023-05-09T02:50:00.823Z,8.00
2023-05-09T02:51:22.919Z,8.00
2023-05-09T02:52:45.836Z,8.00
2023-05-09T02:54:08.846Z,8.00
2023-05-09T02:55:31.775Z,8.00
2023-05-09T02:56:54.073Z,7.90
2023-05-09T02:58:16.483Z,7.90
2023-05-09T02:59:38.546Z,7.90
2023-05-09T03:01:00.678Z,7.90
2023-05-09T03:02:23.812Z,7.90
2023-05-09T03:03:46.687Z,7.80
2023-05-09T03:05:09.126Z,7.80
2023-05-09T03:06:31.303Z,7.80
2023-05-09T03:07:53.434Z,7.80
2023-05-09T03:09:15.646Z,7.80
2023-05-09T03:10:37.723Z,7.80
2023-05-09T03:11:59.782Z,7.80
2023-05-09T03:13:21.949Z,7.80
2023-05-09T03:14:44.157Z,7.80
2023-05-09T03:16:06.801Z,7.70
2023-05-09T03:17:28.951Z,7.80
2023-05-09T03:18:51.052Z,7.70
2023-05-09T03:20:13.354Z,7.70
2023-05-09T03:21:35.512Z,7.70
2023-05-09T03:22:57.652Z,7.80
2023-05-09T03:24:19.738Z,7.70
2023-05-09T03:25:41.845Z,7.70
2023-05-09T03:27:03.938Z,7.70
2023-05-09T03:28:25.992Z,7.70
2023-05-09T03:29:48.175Z,7.80
2023-05-09T03:31:10.468Z,7.70
2023-05-09T03:32:32.620Z,7.80
2023-05-09T03:33:54.809Z,7.80
2023-05-09T03:35:17.326Z,7.80
2023-05-09T03:36:39.595Z,7.80
2023-05-09T03:38:01.747Z,7.80
2023-05-09T03:39:23.863Z,7.90
2023-05-09T03:40:45.996Z,7.90
2023-05-09T03:42:08.231Z,7.90
2023-05-09T03:43:30.423Z,7.90
2023-05-09T03:44:52.973Z,7.90
2023-05-09T03:46:15.115Z,8.00
2023-05-09T03:47:37.202Z,8.00
2023-05-09T03:48:59.415Z,8.00
2023-05-09T03:50:21.433Z,8.10
2023-05-09T03:51:43.600Z,8.10
2023-05-09T03:53:06.437Z,8.10
2023-05-09T03:54:28.475Z,8.20
2023-05-09T03:55:50.565Z,8.30
2023-05-09T03:57:12.571Z,8.80
2023-05-09T03:58:34.595Z,9.70
2023-05-09T03:59:56.629Z,10.70
2023-05-09T04:01:18.825Z,11.70
2023-05-09T04:02:42.140Z,12.70
2023-05-09T04:04:04.616Z,13.50
2023-05-09T04:05:27.263Z,14.30
2023-05-09T04:06:49.387Z,15.10
2023-05-09T04:08:11.539Z,15.70
2023-05-09T04:09:33.688Z,16.20
2023-05-09T04:10:55.820Z,16.70
2023-05-09T04:12:17.928Z,17.10
2023-05-09T04:13:40.237Z,17.60
2023-05-09T04:15:02.548Z,17.90
2023-05-09T04:16:24.772Z,18.10
2023-05-09T04:17:47.393Z,18.30
2023-05-09T04:19:09.570Z,18.40
2023-05-09T04:20:31.619Z,18.80
2023-05-09T04:21:53.716Z,19.00
2023-05-09T04:23:15.816Z,19.20
2023-05-09T04:24:37.841Z,19.40
2023-05-09T04:25:59.932Z,19.60
2023-05-09T04:27:23.655Z,19.70
2023-05-09T04:28:45.828Z,20.00
2023-05-09T04:30:08.543Z,20.30
2023-05-09T04:31:31.519Z,20.50
2023-05-09T04:32:55.250Z,20.60
2023-05-09T04:34:17.451Z,20.70
2023-05-09T04:35:39.550Z,20.80
2023-05-09T04:37:01.983Z,21.00
2023-05-09T04:38:24.082Z,21.20
2023-05-09T04:39:46.109Z,21.30
2023-05-09T04:41:08.189Z,21.30
2023-05-09T04:42:33.364Z,21.30
2023-05-09T04:43:55.764Z,21.40
2023-05-09T04:45:17.925Z,21.50
2023-05-09T04:46:40.604Z,21.80
2023-05-09T04:48:02.756Z,22.10
2023-05-09T04:49:24.859Z,22.10
2023-05-09T04:50:48.569Z,22.10
2023-05-09T04:52:10.716Z,22.10
2023-05-09T04:53:34.157Z,22.10
2023-05-09T04:54:56.205Z,22.10
2023-05-09T04:56:18.214Z,22.10
2023-05-09T04:57:40.301Z,22.10
2023-05-09T04:59:02.353Z,22.10
2023-05-09T05:00:24.829Z,22.10
2023-05-09T05:01:47.088Z,22.20
2023-05-09T05:03:09.228Z,22.30
2023-05-09T05:04:31.786Z,22.30
2023-05-09T05:05:53.952Z,22.50
2023-05-09T05:07:16.034Z,22.60
2023-05-09T05:08:38.125Z,22.50
2023-05-09T05:10:00.173Z,22.40
2023-05-09T05:11:22.229Z,22.40
2023-05-09T05:12:44.280Z,22.40
2023-05-09T05:14:06.292Z,22.50
2023-05-09T05:15:28.374Z,22.70
2023-05-09T05:16:50.397Z,22.70
2023-05-09T05:18:12.601Z,22.60
2023-05-09T05:19:34.657Z,22.70
2023-05-09T05:20:56.762Z,22.70
2023-05-09T05:22:18.840Z,22.70
2023-05-09T05:23:40.892Z,22.70
2023-05-09T05:25:05.123Z,22.80
2023-05-09T05:26:27.408Z,22.90
2023-05-09T05:27:49.581Z,23.00
2023-05-09T05:29:11.851Z,22.80
2023-05-09T05:30:34.638Z,22.80
2023-05-09T05:31:56.962Z,22.70
2023-05-09T05:33:19.081Z,22.60
2023-05-09T05:34:41.182Z,22.60
2023-05-09T05:36:03.345Z,22.70
2023-05-09T05:37:25.403Z,22.50
2023-05-09T05:38:47.440Z,22.30
2023-05-09T05:40:10.041Z,22.10
2023-05-09T05:41:32.104Z,22.00
2023-05-09T05:42:54.469Z,21.90
2023-05-09T05:44:16.485Z,21.80
2023-05-09T05:45:38.613Z,21.70
2023-05-09T05:47:00.721Z,21.90
2023-05-09T05:48:22.917Z,21.90
2023-05-09T05:49:44.958Z,22.20
2023-05-09T05:51:07.080Z,22.00
2023-05-09T05:52:29.293Z,21.80
2023-05-09T05:53:51.595Z,21.70
2023-05-09T05:55:13.910Z,21.80
2023-05-09T05:56:36.198Z,21.60
2023-05-09T05:57:58.245Z,21.50
2023-05-09T05:59:20.313Z,21.40
2023-05-09T06:00:42.648Z,21.10
2023-05-09T06:02:04.779Z,21.00
2023-05-09T06:03:26.887Z,20.80
2023-05-09T06:04:49.552Z,20.60
2023-05-09T06:06:11.710Z,20.20
2023-05-09T06:07:33.886Z,20.10
2023-05-09T06:08:56.408Z,19.80
2023-05-09T06:10:18.494Z,19.60
2023-05-09T06:11:40.747Z,19.30
2023-05-09T06:13:02.897Z,19.00
2023-05-09T06:14:25.287Z,18.60
2023-05-09T06:15:47.402Z,18.20
2023-05-09T06:17:09.648Z,17.70
2023-05-09T06:18:31.830Z,17.10
2023-05-09T06:19:53.870Z,16.60
2023-05-09T06:21:16.055Z,16.20
2023-05-09T06:22:38.242Z,15.70
2023-05-09T06:24:09.818Z,15.30
2023-05-09T06:25:34.250Z,14.90
2023-05-09T06:26:56.336Z,14.50
2023-05-09T06:28:18.613Z,14.20
2023-05-09T06:29:40.690Z,14.00
2023-05-09T06:31:02.809Z,13.90
2023-05-09T06:32:25.656Z,13.80
2023-05-09T06:33:47.754Z,13.60
2023-05-09T06:35:09.857Z,13.60
2023-05-09T06:36:32.337Z,13.50
2023-05-09T06:37:54.488Z,13.40
2023-05-09T06:39:16.604Z,13.30
2023-05-09T06:40:38.611Z,13.30
2023-05-09T06:42:00.673Z,13.30
2023-05-09T06:43:22.720Z,13.30
2023-05-09T06:44:44.946Z,13.30
2023-05-09T06:46:06.968Z,13.30
2023-05-09T06:47:29.027Z,13.30
2023-05-09T06:48:51.049Z,13.30
2023-05-09T06:50:13.091Z,13.30
2023-05-09T06:51:35.279Z,13.40
2023-05-09T06:52:57.286Z,13.40
2023-05-09T06:54:19.327Z,13.40
2023-05-09T06:55:42.121Z,13.50
2023-05-09T06:57:04.431Z,13.50
2023-05-09T06:58:27.440Z,13.50
2023-05-09T06:59:49.420Z,13.50
2023-05-09T07:01:11.525Z,13.50
2023-05-09T07:02:33.608Z,13.60
2023-05-09T07:03:55.708Z,13.60
2023-05-09T07:05:17.993Z,13.60
2023-05-09T07:06:40.202Z,13.70
2023-05-09T07:08:02.625Z,13.70
2023-05-09T07:09:27.868Z,13.70
2023-05-09T07:10:50.013Z,13.70
2023-05-09T07:12:12.109Z,13.70
2023-05-09T07:13:34.136Z,13.70
2023-05-09T07:14:56.152Z,13.70
2023-05-09T07:16:18.496Z,13.70
2023-05-09T07:17:40.781Z,13.80
2023-05-09T07:19:02.821Z,13.90
2023-05-09T07:20:25.619Z,13.80
2023-05-09T07:21:47.722Z,13.90
2023-05-09T07:23:09.793Z,14.00
2023-05-09T07:24:31.822Z,14.00
2023-05-09T07:25:58.510Z,14.00
2023-05-09T07:27:20.582Z,14.10
2023-05-09T07:28:42.592Z,14.10
2023-05-09T07:30:05.773Z,14.10
2023-05-09T07:31:27.985Z,14.10
2023-05-09T07:32:50.216Z,14.10
2023-05-09T07:34:12.319Z,14.10
2023-05-09T07:35:34.410Z,14.20
2023-05-09T07:36:58.506Z,14.30
2023-05-09T07:38:20.604Z,14.30
2023-05-09T07:39:42.659Z,14.30
2023-05-09T07:41:04.743Z,14.40
2023-05-09T07:42:26.838Z,14.40
2023-05-09T07:43:48.877Z,14.40
2023-05-09T07:45:11.144Z,14.40
2023-05-09T07:46:33.275Z,14.50
2023-05-09T07:47:55.465Z,14.50
2023-05-09T07:49:17.582Z,14.60
2023-05-09T07:50:40.328Z,14.60
2023-05-09T07:52:02.455Z,14.60
2023-05-09T07:53:24.556Z,14.70
2023-05-09T07:54:46.586Z,14.70
2023-05-09T07:56:08.622Z,14.70
2023-05-09T07:57:30.717Z,14.80
2023-05-09T07:58:55.064Z,14.80
2023-05-09T08:00:23.243Z,14.90
2023-05-09T08:01:45.533Z,14.90
2023-05-09T08:03:07.954Z,14.90
2023-05-09T08:04:30.421Z,14.90
2023-05-09T08:05:56.430Z,15.00
2023-05-09T08:07:18.512Z,15.00
2023-05-09T08:08:40.513Z,15.00
2023-05-09T08:10:03.295Z,15.00
2023-05-09T08:11:25.340Z,15.10
2023-05-09T08:12:47.576Z,15.10
2023-05-09T08:14:09.612Z,15.10
2023-05-09T08:15:31.823Z,15.10
2023-05-09T08:16:54.245Z,15.20
2023-05-09T08:18:17.332Z,15.30
2023-05-09T08:19:41.452Z,15.40
2023-05-09T08:21:03.587Z,15.40
2023-05-09T08:22:25.629Z,15.50
2023-05-09T08:23:47.905Z,15.50
2023-05-09T08:25:10.335Z,15.60
2023-05-09T08:26:32.413Z,15.70
2023-05-09T08:27:54.470Z,15.70
2023-05-09T08:29:17.715Z,15.70
2023-05-09T08:30:40.535Z,15.70
2023-05-09T08:32:02.551Z,15.70
2023-05-09T08:33:24.706Z,15.80
2023-05-09T08:34:46.896Z,15.90
2023-05-09T08:36:09.119Z,16.00
2023-05-09T08:37:31.258Z,16.10
2023-05-09T08:38:53.335Z,16.10
2023-05-09T08:40:17.224Z,16.10
2023-05-09T08:41:39.983Z,16.10
2023-05-09T08:43:03.504Z,16.20
2023-05-09T08:44:26.914Z,16.20
2023-05-09T08:45:54.916Z,16.30
2023-05-09T08:47:17.676Z,16.40
2023-05-09T08:48:40.415Z,16.40
2023-05-09T08:50:04.245Z,16.40
2023-05-09T08:51:29.075Z,16.40
2023-05-09T08:52:52.334Z,16.40
2023-05-09T08:54:15.366Z,16.40
2023-05-09T08:55:38.130Z,16.50
2023-05-09T08:57:01.389Z,16.50
2023-05-09T08:58:23.735Z,16.60
2023-05-09T08:59:46.494Z,16.70
2023-05-09T09:01:12.135Z,16.80
2023-05-09T09:02:35.839Z,16.80
2023-05-09T09:03:58.187Z,16.80
2023-05-09T09:05:40.047Z,16.80
2023-05-09T09:07:05.739Z,16.80
2023-05-09T09:08:27.976Z,16.80
2023-05-09T09:09:51.442Z,16.80
2023-05-09T09:11:14.264Z,16.80
2023-05-09T09:12:37.600Z,16.80
2023-05-09T09:14:08.658Z,16.90
2023-05-09T09:15:38.684Z,16.90
2023-05-09T09:17:01.343Z,17.00
2023-05-09T09:18:29.840Z,17.10
2023-05-09T09:20:00.246Z,17.20
2023-05-09T09:21:23.489Z,17.20
2023-05-09T09:22:48.088Z,17.20
2023-05-09T09:24:14.071Z,17.30
2023-05-09T09:25:36.592Z,17.30
2023-05-09T09:27:04.711Z,17.30
2023-05-09T09:28:27.191Z,17.30
2023-05-09T09:29:49.208Z,17.30
2023-05-09T09:31:28.468Z,17.40
2023-05-09T09:32:50.604Z,17.40
2023-05-09T09:34:19.038Z,17.30
2023-05-09T09:35:43.380Z,17.30
2023-05-09T09:37:07.138Z,17.40
2023-05-09T09:38:31.089Z,17.50
2023-05-09T09:39:56.824Z,17.60
2023-05-09T09:41:18.878Z,17.60
2023-05-09T09:42:45.934Z,17.60
2023-05-09T09:44:19.351Z,17.60
2023-05-09T09:45:42.344Z,17.60
2023-05-09T09:47:07.493Z,17.60
2023-05-09T09:48:36.233Z,17.60
2023-05-09T09:49:58.515Z,17.60
2023-05-09T09:51:21.158Z,17.70
2023-05-09T09:52:54.095Z,17.70
2023-05-09T09:54:16.196Z,17.80
2023-05-09T09:55:53.218Z,17.80
2023-05-09T09:57:37.229Z,17.90
2023-05-09T09:59:10.226Z,17.80
2023-05-09T10:00:32.738Z,17.80
2023-05-09T10:02:07.560Z,17.90
2023-05-09T10:03:39.925Z,17.90
2023-05-09T10:05:08.619Z,18.00
2023-05-09T10:06:31.188Z,18.00
2023-05-09T10:08:01.138Z,18.10
2023-05-09T10:09:27.606Z,18.20
2023-05-09T10:10:49.921Z,18.30
2023-05-09T10:12:14.534Z,18.30
2023-05-09T10:13:38.397Z,18.30
2023-05-09T10:15:03.607Z,18.40
2023-05-09T10:16:42.728Z,18.50
2023-05-09T10:18:08.182Z,18.40
2023-05-09T10:19:31.871Z,18.40
2023-05-09T10:20:56.316Z,18.50
2023-05-09T10:22:19.642Z,18.50
2023-05-09T10:23:46.266Z,18.50
2023-05-09T10:25:14.996Z,18.50
2023-05-09T10:26:41.287Z,18.50
2023-05-09T10:28:08.523Z,18.60
2023-05-09T10:29:35.380Z,18.70
2023-05-09T10:31:05.936Z,18.70
2023-05-09T10:32:38.124Z,18.80
2023-05-09T10:34:05.332Z,18.80
2023-05-09T10:35:35.611Z,18.90
2023-05-09T10:37:00.430Z,19.00
2023-05-09T10:38:24.675Z,19.00
2023-05-09T10:39:46.956Z,19.10
2023-05-09T10:41:10.399Z,19.20
2023-05-09T10:42:32.579Z,19.10
2023-05-09T10:43:59.150Z,19.20
2023-05-09T10:45:22.193Z,19.20
2023-05-09T10:46:45.377Z,19.30
2023-05-09T10:48:09.211Z,19.30
2023-05-09T10:49:32.781Z,19.40
2023-05-09T10:50:57.213Z,19.40
2023-05-09T10:52:22.400Z,19.40
2023-05-09T10:53:50.144Z,19.30
2023-05-09T10:55:12.907Z,19.30
2023-05-09T10:56:39.884Z,19.40
2023-05-09T10:58:20.269Z,19.40
2023-05-09T10:59:43.419Z,19.40
2023-05-09T11:01:05.650Z,19.40
2023-05-09T11:02:31.045Z,19.40
2023-05-09T11:03:58.331Z,19.40
2023-05-09T11:05:20.646Z,19.50
2023-05-09T11:06:43.757Z,19.50
2023-05-09T11:08:26.182Z,19.40
2023-05-09T11:10:10.153Z,19.50
2023-05-09T11:11:32.311Z,19.50
2023-05-09T11:12:59.002Z,19.50
2023-05-09T11:14:56.120Z,19.60
2023-05-09T11:16:18.280Z,19.70
2023-05-09T11:17:40.412Z,19.70
2023-05-09T11:19:02.857Z,19.70
2023-05-09T11:20:29.234Z,19.70
2023-05-09T11:22:03.455Z,19.70
2023-05-09T11:23:31.367Z,19.70
2023-05-09T11:25:13.973Z,19.70
2023-05-09T11:26:38.231Z,19.70
2023-05-09T11:28:03.551Z,19.70
2023-05-09T11:29:28.832Z,19.70
2023-05-09T11:30:51.386Z,19.70
2023-05-09T11:32:14.993Z,19.80
2023-05-09T11:33:38.111Z,19.80
2023-05-09T11:35:16.958Z,19.80
2023-05-09T11:36:47.686Z,19.70
2023-05-09T11:38:10.150Z,19.80
2023-05-09T11:39:32.264Z,19.70
2023-05-09T11:40:55.945Z,19.80
2023-05-09T11:42:18.424Z,19.80
2023-05-09T11:43:43.267Z,19.90
2023-05-09T11:45:07.325Z,19.90
2023-05-09T11:46:29.585Z,20.00
2023-05-09T11:47:52.398Z,20.10
2023-05-09T11:49:15.174Z,20.20
2023-05-09T11:50:37.361Z,20.30
2023-05-09T11:51:59.973Z,20.40
2023-05-09T11:53:22.479Z,20.40
2023-05-09T11:54:44.685Z,20.40
2023-05-09T11:56:07.733Z,20.30
2023-05-09T11:57:30.184Z,20.30
2023-05-09T11:58:52.656Z,20.30
2023-05-09T12:00:19.872Z,20.30
2023-05-09T12:01:42.474Z,20.30
2023-05-09T12:03:06.069Z,20.30
2023-05-09T12:04:30.754Z,20.30
2023-05-09T12:05:55.942Z,20.30
2023-05-09T12:07:18.811Z,20.30
2023-05-09T12:08:40.912Z,20.40
2023-05-09T12:10:06.461Z,20.40
2023-05-09T12:11:32.290Z,20.40
2023-05-09T12:12:55.981Z,20.50
2023-05-09T12:14:31.079Z,20.50
2023-05-09T12:16:01.257Z,20.50
2023-05-09T12:17:23.317Z,20.60
2023-05-09T12:18:54.832Z,20.60
2023-05-09T12:20:16.885Z,20.50
2023-05-09T12:21:40.430Z,20.50
2023-05-09T12:23:03.619Z,20.50
2023-05-09T12:24:30.141Z,20.50
2023-05-09T12:25:56.508Z,20.50
2023-05-09T12:27:18.773Z,20.50
2023-05-09T12:28:41.519Z,20.60
2023-05-09T12:30:10.065Z,20.60
2023-05-09T12:31:32.436Z,20.70
2023-05-09T12:32:55.217Z,20.70
2023-05-09T12:34:17.781Z,20.60
2023-05-09T12:35:40.251Z,20.60
2023-05-09T12:37:03.715Z,20.70
2023-05-09T12:38:25.932Z,20.70
2023-05-09T12:40:04.950Z,20.70
2023-05-09T12:41:39.159Z,20.60
2023-05-09T12:43:07.221Z,20.60
2023-05-09T12:44:29.684Z,20.70
2023-05-09T12:45:55.133Z,20.80
2023-05-09T12:47:17.292Z,20.80
2023-05-09T12:48:39.410Z,20.90
2023-05-09T12:50:03.661Z,21.00
2023-05-09T12:51:26.053Z,21.00
2023-05-09T12:53:02.465Z,21.10
2023-05-09T12:54:27.237Z,21.20
2023-05-09T12:55:49.335Z,21.10
2023-05-09T12:57:22.740Z,21.10
2023-05-09T12:58:51.136Z,21.10
2023-05-09T13:00:14.242Z,21.00
2023-05-09T13:01:36.345Z,21.00
2023-05-09T13:02:59.516Z,20.90
2023-05-09T13:04:22.241Z,20.90
2023-05-09T13:05:55.129Z,20.90
2023-05-09T13:07:17.182Z,20.90
2023-05-09T13:08:39.387Z,20.80
2023-05-09T13:10:01.595Z,20.90
2023-05-09T13:11:24.359Z,20.90
2023-05-09T13:12:48.327Z,21.00
2023-05-09T13:14:10.755Z,21.00
2023-05-09T13:15:33.700Z,21.00
2023-05-09T13:16:56.175Z,21.00
2023-05-09T13:18:18.375Z,21.00
2023-05-09T13:19:40.481Z,20.90
2023-05-09T13:21:02.605Z,21.00
2023-05-09T13:22:24.668Z,21.00
2023-05-09T13:23:46.697Z,21.00
2023-05-09T13:25:09.178Z,21.00
2023-05-09T13:26:31.546Z,21.00
2023-05-09T13:27:53.578Z,21.00
2023-05-09T13:29:15.683Z,21.00
2023-05-09T13:30:37.776Z,21.10
2023-05-09T13:31:59.952Z,21.20
2023-05-09T13:33:25.924Z,21.30
2023-05-09T13:34:49.421Z,21.30
2023-05-09T13:36:11.536Z,21.30
2023-05-09T13:37:35.583Z,21.20
2023-05-09T13:38:57.770Z,21.20
2023-05-09T13:40:19.926Z,21.20
2023-05-09T13:41:42.048Z,21.30
2023-05-09T13:43:04.093Z,21.30
2023-05-09T13:44:26.204Z,21.40
2023-05-09T13:45:48.344Z,21.40
2023-05-09T13:47:11.212Z,21.40
2023-05-09T13:48:33.291Z,21.50
2023-05-09T13:49:55.474Z,21.60
2023-05-09T13:51:17.591Z,21.50
2023-05-09T13:52:39.677Z,21.40
2023-05-09T13:54:01.711Z,21.40
2023-05-09T13:55:25.945Z,21.30
2023-05-09T13:56:48.603Z,21.20
2023-05-09T13:58:10.753Z,21.20
2023-05-09T13:59:32.912Z,21.20
2023-05-09T14:00:54.924Z,21.20
2023-05-09T14:02:17.010Z,21.20
2023-05-09T14:03:39.246Z,21.20
2023-05-09T14:05:02.934Z,21.30
2023-05-09T14:06:25.071Z,21.40
2023-05-09T14:07:47.706Z,21.50
2023-05-09T14:09:09.853Z,21.50
2023-05-09T14:10:31.856Z,21.40
2023-05-09T14:11:55.331Z,21.50
2023-05-09T14:13:17.671Z,21.50
2023-05-09T14:14:39.741Z,21.50
2023-05-09T14:16:01.806Z,21.50
2023-05-09T14:17:23.926Z,21.50
2023-05-09T14:18:46.103Z,21.40
2023-05-09T14:20:08.708Z,21.40
2023-05-09T14:21:30.759Z,21.40
2023-05-09T14:22:55.001Z,21.40
2023-05-09T14:24:17.051Z,21.30
2023-05-09T14:25:39.254Z,21.30
2023-05-09T14:27:01.591Z,21.20
2023-05-09T14:28:24.009Z,21.20
2023-05-09T14:29:46.084Z,21.20
2023-05-09T14:31:08.199Z,21.10
2023-05-09T14:32:30.292Z,21.10
2023-05-09T14:33:52.361Z,21.10
2023-05-09T14:35:14.806Z,21.10
2023-05-09T14:36:37.487Z,21.10
2023-05-09T14:38:00.417Z,21.10
2023-05-09T14:39:22.435Z,21.10
2023-05-09T14:40:44.575Z,21.10
2023-05-09T14:42:08.297Z,21.20
2023-05-09T14:43:30.323Z,21.20
2023-05-09T14:44:52.458Z,21.30
2023-05-09T14:46:14.650Z,21.20
2023-05-09T14:47:37.273Z,21.30
2023-05-09T14:49:04.102Z,21.30
2023-05-09T14:50:26.258Z,21.30
2023-05-09T14:51:48.382Z,21.30
2023-05-09T14:53:11.212Z,21.30
2023-05-09T14:54:33.352Z,21.20
2023-05-09T14:55:55.849Z,21.10
2023-05-09T14:57:17.889Z,21.20
2023-05-09T14:58:40.081Z,21.00
2023-05-09T15:00:16.690Z,21.00
2023-05-09T15:01:42.255Z,21.00
2023-05-09T15:03:04.498Z,21.00
2023-05-09T15:04:30.555Z,21.00
2023-05-09T15:05:52.857Z,21.00
2023-05-09T15:07:14.933Z,21.00
2023-05-09T15:08:37.072Z,21.00
2023-05-09T15:09:59.160Z,21.00
2023-05-09T15:11:21.951Z,21.00
2023-05-09T15:12:44.270Z,20.90
2023-05-09T15:14:06.452Z,20.90
2023-05-09T15:15:28.516Z,20.80
2023-05-09T15:16:53.974Z,20.70
2023-05-09T15:18:18.392Z,20.70
2023-05-09T15:19:41.719Z,20.70
2023-05-09T15:21:04.124Z,20.60
2023-05-09T15:22:26.180Z,20.60
2023-05-09T15:23:48.176Z,20.70
2023-05-09T15:25:11.035Z,20.70
2023-05-09T15:26:33.121Z,20.60
2023-05-09T15:27:55.270Z,20.70
2023-05-09T15:29:17.302Z,20.70
2023-05-09T15:30:41.138Z,20.60
2023-05-09T15:32:03.384Z,20.60
2023-05-09T15:33:25.799Z,20.70
2023-05-09T15:34:47.888Z,20.70
2023-05-09T15:36:10.008Z,20.60
2023-05-09T15:37:34.356Z,20.60
2023-05-09T15:38:57.711Z,20.60
2023-05-09T15:40:19.778Z,20.50
2023-05-09T15:41:41.987Z,20.50
2023-05-09T15:43:07.979Z,20.50
2023-05-09T15:44:31.243Z,20.50
2023-05-09T15:45:53.294Z,20.50
2023-05-09T15:47:15.547Z,20.50
2023-05-09T15:48:37.667Z,20.50
2023-05-09T15:49:59.748Z,20.50
2023-05-09T15:51:21.867Z,20.50
2023-05-09T15:52:45.794Z,20.40
2023-05-09T15:54:08.822Z,20.40
2023-05-09T15:55:32.151Z,20.40
2023-05-09T15:56:54.172Z,20.40
2023-05-09T15:58:16.436Z,20.40
2023-05-09T15:59:38.585Z,20.30
2023-05-09T16:01:01.064Z,20.30
2023-05-09T16:02:23.988Z,20.30
2023-05-09T16:03:46.552Z,20.20
2023-05-09T16:05:09.528Z,20.10
2023-05-09T16:06:33.567Z,20.00
2023-05-09T16:07:55.984Z,20.00
2023-05-09T16:09:19.069Z,20.00
2023-05-09T16:10:41.313Z,19.90
2023-05-09T16:12:03.502Z,19.90
2023-05-09T16:13:25.825Z,19.90
2023-05-09T16:14:48.038Z,19.80
2023-05-09T16:16:10.139Z,19.80
2023-05-09T16:17:32.484Z,19.80
2023-05-09T16:18:54.609Z,19.70
2023-05-09T16:20:16.805Z,19.70
2023-05-09T16:21:39.653Z,19.70
2023-05-09T16:23:01.879Z,19.70
2023-05-09T16:24:24.064Z,19.70
2023-05-09T16:25:46.253Z,19.70
2023-05-09T16:27:08.580Z,19.60
2023-05-09T16:28:30.674Z,19.50
2023-05-09T16:29:52.765Z,19.50
2023-05-09T16:31:14.920Z,19.50
2023-05-09T16:32:37.532Z,19.40
2023-05-09T16:33:59.637Z,19.40
2023-05-09T16:35:21.885Z,19.30
2023-05-09T16:36:46.296Z,19.30
2023-05-09T16:38:08.466Z,19.30
2023-05-09T16:39:30.729Z,19.20
2023-05-09T16:40:53.155Z,19.20
2023-05-09T16:42:15.232Z,19.20
2023-05-09T16:43:37.302Z,19.20
2023-05-09T16:44:59.414Z,19.20
2023-05-09T16:46:21.579Z,19.10
2023-05-09T16:47:43.788Z,19.10
2023-05-09T16:49:05.900Z,19.20
2023-05-09T16:50:28.744Z,19.10
2023-05-09T16:51:51.490Z,19.10
2023-05-09T16:53:13.894Z,19.10
2023-05-09T16:54:35.908Z,19.20
2023-05-09T16:55:58.451Z,19.20
2023-05-09T16:57:20.734Z,19.20
2023-05-09T16:58:44.687Z,19.20
2023-05-09T17:00:07.865Z,19.20
2023-05-09T17:01:30.152Z,19.20
2023-05-09T17:02:52.633Z,19.20
2023-05-09T17:04:14.804Z,19.20
2023-05-09T17:05:36.859Z,19.20
2023-05-09T17:06:58.958Z,19.20
2023-05-09T17:08:21.052Z,19.20
2023-05-09T17:09:43.221Z,19.20
2023-05-09T17:11:05.463Z,19.20
2023-05-09T17:12:27.658Z,19.20
2023-05-09T17:13:49.755Z,19.30
2023-05-09T17:15:12.231Z,19.30
2023-05-09T17:16:36.525Z,19.30
2023-05-09T17:18:00.637Z,19.30
2023-05-09T17:19:23.624Z,19.20
2023-05-09T17:20:45.716Z,19.30
2023-05-09T17:22:07.945Z,19.30
2023-05-09T17:23:29.970Z,19.30
2023-05-09T17:24:52.305Z,19.30
2023-05-09T17:26:14.533Z,19.30
2023-05-09T17:27:36.681Z,19.40
2023-05-09T17:28:58.825Z,19.40
2023-05-09T17:30:23.208Z,19.40
2023-05-09T17:31:45.687Z,19.50
2023-05-09T17:33:07.993Z,19.50
2023-05-09T17:34:30.045Z,19.50
2023-05-09T17:35:52.277Z,19.40
2023-05-09T17:37:14.356Z,19.40
2023-05-09T17:38:36.416Z,19.40
2023-05-09T17:39:58.607Z,19.50
2023-05-09T17:41:20.677Z,19.50
2023-05-09T17:42:42.812Z,19.50
2023-05-09T17:44:05.148Z,19.50
2023-05-09T17:45:27.246Z,19.50
2023-05-09T17:46:49.532Z,19.50
2023-05-09T17:48:11.567Z,19.40
2023-05-09T17:49:33.795Z,19.30
2023-05-09T17:50:56.267Z,19.30
2023-05-09T17:52:18.341Z,19.20
2023-05-09T17:53:40.660Z,19.20
2023-05-09T17:55:03.910Z,19.10
2023-05-09T17:56:26.081Z,19.00
2023-05-09T17:57:48.124Z,19.00
2023-05-09T17:59:10.437Z,18.90
2023-05-09T18:00:32.655Z,18.80
2023-05-09T18:01:55.066Z,18.70
2023-05-09T18:03:17.364Z,18.60
2023-05-09T18:04:39.517Z,18.50
2023-05-09T18:06:01.840Z,18.40
2023-05-09T18:07:24.396Z,18.30
2023-05-09T18:08:47.121Z,18.10